Time;durP1;ratioP1;P1;durP2;ratioP2;P2;SDS_P1;SDS_P2;PMS_P1;PMS_P2;Temp;Humidity;BMP_temperature;BMP_pressure;BME280_temperature;BME280_humidity;BME280_pressure;Samples;Min_cycle;Max_cycle;Signal;HPM_P1;HPM_P2
2022/04/24 00:02:27;;;;;;;28.05;16.35;;;;;;;9.36;100.00;97908.75;4484930;32;20127;-76
2022/04/24 00:04:55;;;;;;;27.10;15.20;;;;;;;9.36;100.00;97910.56;4485870;31;20170;-76
2022/04/24 00:07:22;;;;;;;27.25;15.15;;;;;;;9.49;100.00;97907.53;4485666;31;20189;-75
2022/04/24 00:09:49;;;;;;;29.00;15.77;;;;;;;9.41;100.00;97909.09;4486031;31;20099;-76
2022/04/24 00:12:17;;;;;;;28.20;14.27;;;;;;;9.30;100.00;97904.13;4485935;32;20127;-76
2022/04/24 00:14:45;;;;;;;27.55;14.82;;;;;;;9.36;100.00;97903.53;4485895;31;20451;-76
2022/04/24 00:17:15;;;;;;;30.27;15.35;;;;;;;9.20;100.00;97900.75;4485850;31;20096;-76
2022/04/24 00:19:44;;;;;;;30.08;15.68;;;;;;;9.30;100.00;97890.25;4485939;31;20163;-76
2022/04/24 00:22:11;;;;;;;26.95;14.60;;;;;;;9.28;100.00;97882.56;4486050;31;20097;-76
2022/04/24 00:24:38;;;;;;;32.28;15.38;;;;;;;9.28;100.00;97879.94;4485771;32;20131;-76
2022/04/24 00:27:07;;;;;;;28.83;15.50;;;;;;;9.08;100.00;97866.19;4485616;31;20084;-76
2022/04/24 00:29:34;;;;;;;25.55;14.82;;;;;;;9.17;100.00;97865.28;4485667;32;20152;-75
2022/04/24 00:32:02;;;;;;;28.50;14.40;;;;;;;9.36;100.00;97860.88;4485908;31;20454;-76
2022/04/24 00:34:30;;;;;;;33.08;15.45;;;;;;;9.38;100.00;97867.59;4485617;31;20153;-76
2022/04/24 00:36:57;;;;;;;30.20;14.38;;;;;;;9.27;100.00;97865.22;4485630;31;20079;-76
2022/04/24 00:39:24;;;;;;;26.42;14.85;;;;;;;9.23;100.00;97871.72;4485569;31;20881;-76
2022/04/24 00:41:52;;;;;;;30.48;15.32;;;;;;;9.29;100.00;97865.88;4485843;31;20115;-76
2022/04/24 00:44:19;;;;;;;29.58;15.40;;;;;;;9.24;100.00;97865.53;4485952;31;20145;-76
2022/04/24 00:46:56;;;;;;;24.87;14.23;;;;;;;9.28;100.00;97864.25;4486114;31;20179;-76
2022/04/24 00:49:24;;;;;;;30.05;16.02;;;;;;;9.34;100.00;97865.44;4485683;31;20111;-76
2022/04/24 00:51:51;;;;;;;28.70;14.98;;;;;;;9.34;100.00;97858.44;4485805;31;20096;-76
2022/04/24 00:54:18;;;;;;;27.13;15.30;;;;;;;9.10;100.00;97866.87;4485567;31;20104;-76
2022/04/24 00:56:46;;;;;;;29.95;15.07;;;;;;;9.28;100.00;97864.25;4485883;31;20446;-76
2022/04/24 00:59:15;;;;;;;31.17;16.08;;;;;;;9.23;100.00;97872.56;4485428;31;20100;-76
2022/04/24 01:01:42;;;;;;;35.00;15.77;;;;;;;9.20;100.00;97872.00;4486059;31;20476;-76
2022/04/24 01:04:11;;;;;;;29.65;15.68;;;;;;;9.02;100.00;97872.88;4485381;31;20105;-76
2022/04/24 01:06:43;;;;;;;29.92;15.73;;;;;;;9.14;100.00;97877.84;4485417;32;20088;-76
2022/04/24 01:09:15;;;;;;;30.48;15.63;;;;;;;9.16;100.00;97875.91;4485528;31;20116;-76
2022/04/24 01:11:43;;;;;;;29.02;14.45;;;;;;;9.13;100.00;97863.12;4485610;32;20495;-76
2022/04/24 01:14:11;;;;;;;32.33;15.00;;;;;;;9.13;100.00;97866.59;4485418;31;20152;-75
2022/04/24 01:16:38;;;;;;;31.40;16.08;;;;;;;9.12;100.00;97856.28;4485572;31;20158;-76
2022/04/24 01:19:06;;;;;;;32.10;15.48;;;;;;;9.08;100.00;97857.53;4485500;31;20481;-76
2022/04/24 01:21:34;;;;;;;28.65;15.10;;;;;;;9.17;100.00;97861.88;4485798;31;20164;-76
2022/04/24 01:24:05;;;;;;;32.20;15.18;;;;;;;9.06;100.00;97858.50;4485269;31;20093;-76
2022/04/24 01:26:33;;;;;;;29.45;15.63;;;;;;;9.01;100.00;97858.16;4485502;32;20442;-76
2022/04/24 01:29:01;;;;;;;26.35;14.25;;;;;;;9.15;100.00;97851.56;4485298;31;20088;-76
2022/04/24 01:31:28;;;;;;;25.65;14.57;;;;;;;9.12;100.00;97854.47;4485408;31;20119;-75
2022/04/24 01:33:56;;;;;;;28.75;15.60;;;;;;;9.13;100.00;97839.62;4485113;32;20153;-75
2022/04/24 01:36:23;;;;;;;30.37;16.83;;;;;;;9.03;100.00;97830.06;4485143;31;20119;-75
2022/04/24 01:38:50;;;;;;;30.98;16.20;;;;;;;8.92;100.00;97835.53;4484392;31;20207;-75
2022/04/24 01:41:17;;;;;;;33.15;17.70;;;;;;;8.99;100.00;97828.75;4485602;31;20104;-76
2022/04/24 01:43:46;;;;;;;33.90;15.93;;;;;;;9.01;100.00;97826.78;4485316;31;20744;-76
2022/04/24 01:46:14;;;;;;;29.52;15.82;;;;;;;8.97;100.00;97833.28;4485555;31;20088;-76
2022/04/24 01:48:42;;;;;;;28.75;15.32;;;;;;;9.05;100.00;97837.75;4485418;31;20096;-76
2022/04/24 01:51:09;;;;;;;26.80;13.55;;;;;;;9.09;100.00;97838.28;4485202;31;20120;-76
2022/04/24 01:53:37;;;;;;;29.63;15.25;;;;;;;9.12;100.00;97838.00;4485091;31;20522;-76
2022/04/24 01:56:06;;;;;;;27.33;15.30;;;;;;;9.11;100.00;97837.16;4485529;31;20417;-75
2022/04/24 01:58:34;;;;;;;34.65;16.42;;;;;;;9.10;100.00;97832.91;4485458;31;20099;-76
2022/04/24 02:01:01;;;;;;;30.05;14.85;;;;;;;8.98;100.00;97834.94;4485101;31;20179;-76
2022/04/24 02:03:33;;;;;;;30.73;15.65;;;;;;;9.06;100.00;97832.38;4485129;31;20152;-76
2022/04/24 02:06:02;;;;;;;32.05;16.45;;;;;;;9.11;100.00;97841.56;4484997;31;20091;-75
2022/04/24 02:08:30;;;;;;;29.85;15.48;;;;;;;9.13;100.00;97832.62;4485289;31;20142;-76
2022/04/24 02:10:58;;;;;;;30.67;15.38;;;;;;;9.09;100.00;97833.88;4484966;31;20449;-76
2022/04/24 02:13:25;;;;;;;27.35;14.85;;;;;;;9.09;100.00;97827.84;4485230;31;20084;-76
2022/04/24 02:15:53;;;;;;;30.30;15.77;;;;;;;9.22;100.00;97831.69;4484895;31;20502;-76
2022/04/24 02:18:20;;;;;;;26.83;15.38;;;;;;;9.18;100.00;97829.53;4484920;31;20473;-76
2022/04/24 02:20:47;;;;;;;30.45;16.60;;;;;;;9.33;100.00;97838.47;4485018;31;20097;-75
2022/04/24 02:23:14;;;;;;;28.00;16.27;;;;;;;9.03;100.00;97832.69;4485055;31;20115;-75
2022/04/24 02:25:41;;;;;;;31.70;15.82;;;;;;;8.94;100.00;97824.94;4485010;32;20123;-75
2022/04/24 02:28:09;;;;;;;30.17;15.52;;;;;;;8.87;100.00;97819.47;4484915;31;20116;-76
2022/04/24 02:30:36;;;;;;;31.92;16.33;;;;;;;8.92;100.00;97814.63;4484802;31;20130;-75
2022/04/24 02:33:03;;;;;;;30.15;16.27;;;;;;;8.86;100.00;97813.44;4485317;32;20115;-76
2022/04/24 02:35:30;;;;;;;30.98;15.77;;;;;;;8.82;100.00;97817.31;4484586;31;20084;-76
2022/04/24 02:37:57;;;;;;;32.83;16.65;;;;;;;8.82;100.00;97821.72;4484909;31;20096;-75
2022/04/24 02:40:27;;;;;;;31.85;17.00;;;;;;;8.75;100.00;97815.44;4484821;31;20435;-75
2022/04/24 02:42:55;;;;;;;29.63;16.08;;;;;;;8.75;100.00;97829.34;4484911;31;20140;-75
2022/04/24 02:45:22;;;;;;;29.50;16.62;;;;;;;8.85;100.00;97826.66;4484803;31;20092;-76
2022/04/24 02:47:50;;;;;;;33.95;16.33;;;;;;;8.83;100.00;97823.38;4484734;32;20096;-76
2022/04/24 02:50:17;;;;;;;31.17;15.68;;;;;;;8.71;100.00;97822.78;4484407;31;20457;-76
2022/04/24 02:52:52;;;;;;;30.67;15.85;;;;;;;8.70;100.00;97824.56;4484779;31;20126;-75
2022/04/24 02:55:21;;;;;;;33.28;16.42;;;;;;;8.66;100.00;97825.00;4484603;31;20140;-75
2022/04/24 02:57:48;;;;;;;35.08;16.45;;;;;;;8.66;100.00;97818.00;4484826;31;20080;-75
2022/04/24 03:00:22;;;;;;;31.90;17.15;;;;;;;8.62;100.00;97816.66;4484311;31;20127;-75
2022/04/24 03:02:51;;;;;;;30.17;15.95;;;;;;;8.57;100.00;97808.44;4484843;31;20574;-75
2022/04/24 03:05:22;;;;;;;33.70;15.98;;;;;;;8.60;100.00;97809.91;4484379;31;20108;-75
2022/04/24 03:07:50;;;;;;;31.15;15.85;;;;;;;8.48;100.00;97817.97;4484206;31;20126;-75
2022/04/24 03:10:17;;;;;;;33.70;16.00;;;;;;;8.49;100.00;97795.28;4484348;31;20101;-75
2022/04/24 03:12:44;;;;;;;34.00;17.10;;;;;;;8.48;100.00;97789.25;4483240;32;20470;-75
2022/04/24 03:15:12;;;;;;;32.78;16.45;;;;;;;8.42;100.00;97786.38;4484266;31;20552;-75
2022/04/24 03:17:40;;;;;;;35.20;16.55;;;;;;;8.42;100.00;97791.59;4484270;32;20118;-75
2022/04/24 03:20:09;;;;;;;32.38;16.67;;;;;;;8.41;100.00;97796.00;4484224;31;20581;-75
2022/04/24 03:22:36;;;;;;;37.42;18.15;;;;;;;8.47;100.00;97797.25;4484323;31;20533;-75
2022/04/24 03:25:06;;;;;;;31.25;16.40;;;;;;;8.44;100.00;97793.13;4484191;31;20131;-75
2022/04/24 03:27:34;;;;;;;34.10;16.42;;;;;;;8.56;100.00;97795.53;4483052;32;20111;-75
2022/04/24 03:30:02;;;;;;;33.17;17.35;;;;;;;8.43;100.00;97785.41;4483917;31;20187;-76
2022/04/24 03:32:33;;;;;;;36.65;17.45;;;;;;;8.46;100.00;97766.88;4484141;31;20397;-75
2022/04/24 03:35:01;;;;;;;38.47;18.35;;;;;;;8.54;100.00;97785.25;4483970;31;20115;-75
2022/04/24 03:37:29;;;;;;;39.58;19.45;;;;;;;8.61;100.00;97778.44;4484013;32;20454;-75
2022/04/24 03:39:56;;;;;;;40.88;19.83;;;;;;;8.55;100.00;97773.81;4484273;31;20080;-75
2022/04/24 03:42:25;;;;;;;39.22;18.42;;;;;;;8.62;100.00;97764.44;4483858;31;20114;-75
2022/04/24 03:44:55;;;;;;;34.35;16.70;;;;;;;8.64;100.00;97759.87;4484066;32;20107;-75
2022/04/24 03:47:23;;;;;;;36.75;17.92;;;;;;;8.65;100.00;97776.37;4483907;31;20096;-75
2022/04/24 03:49:50;;;;;;;35.90;17.30;;;;;;;8.72;100.00;97771.34;4483945;31;20906;-76
2022/04/24 03:52:18;;;;;;;36.58;17.87;;;;;;;8.81;100.00;97775.69;4483824;31;20093;-75
2022/04/24 03:54:45;;;;;;;39.50;18.67;;;;;;;8.78;100.00;97783.81;4484115;31;20084;-75
2022/04/24 03:57:12;;;;;;;36.03;18.20;;;;;;;8.75;100.00;97769.28;4483684;31;20492;-76
2022/04/24 03:59:40;;;;;;;36.03;18.12;;;;;;;8.68;100.00;97763.00;4483683;32;20232;-75
2022/04/24 04:02:07;;;;;;;36.85;18.35;;;;;;;8.79;100.00;97760.16;4483793;31;20514;-76
2022/04/24 04:04:35;;;;;;;37.17;19.33;;;;;;;8.81;100.00;97773.91;4485991;32;20159;-75
2022/04/24 04:07:02;;;;;;;40.58;18.95;;;;;;;8.87;100.00;97772.47;4485611;31;20096;-75
2022/04/24 04:09:30;;;;;;;38.15;18.00;;;;;;;8.89;100.00;97775.75;4486005;31;20454;-75
2022/04/24 04:11:57;;;;;;;33.72;17.60;;;;;;;8.80;100.00;97779.28;4486014;32;20096;-75
2022/04/24 04:14:24;;;;;;;36.55;17.90;;;;;;;8.76;100.00;97772.72;4486165;31;20088;-76
2022/04/24 04:16:51;;;;;;;34.38;17.98;;;;;;;8.80;100.00;97771.44;4485747;31;20451;-76
2022/04/24 04:19:19;;;;;;;33.90;17.70;;;;;;;8.86;100.00;97787.31;4485942;31;20410;-75
2022/04/24 04:21:46;;;;;;;37.45;18.73;;;;;;;8.90;100.00;97782.59;4485591;31;20477;-75
2022/04/24 04:24:13;;;;;;;38.42;18.30;;;;;;;8.93;100.00;97779.69;4485922;31;20122;-76
2022/04/24 04:26:41;;;;;;;38.30;18.55;;;;;;;8.95;100.00;97777.78;4485850;32;20103;-75
2022/04/24 04:29:08;;;;;;;32.97;16.42;;;;;;;8.96;100.00;97775.97;4485727;31;20126;-75
2022/04/24 04:31:35;;;;;;;33.75;17.90;;;;;;;9.04;100.00;97774.25;4485795;31;20096;-76
2022/04/24 04:34:03;;;;;;;35.38;19.17;;;;;;;8.94;100.00;97777.91;4485690;31;20139;-76
2022/04/24 04:36:30;;;;;;;36.70;19.00;;;;;;;9.00;100.00;97780.72;4485505;31;20506;-76
2022/04/24 04:38:57;;;;;;;38.33;18.10;;;;;;;8.90;100.00;97787.03;4485732;31;20454;-76
2022/04/24 04:41:25;;;;;;;38.75;18.10;;;;;;;9.08;100.00;97787.00;4485667;31;20088;-76
2022/04/24 04:43:52;;;;;;;41.28;19.48;;;;;;;9.19;100.00;97789.34;4485747;31;20096;-76
2022/04/24 04:46:19;;;;;;;42.45;19.62;;;;;;;9.19;100.00;97784.97;4485412;31;20181;-76
2022/04/24 04:48:46;;;;;;;39.75;18.95;;;;;;;9.21;100.00;97780.41;4485801;31;20115;-76
2022/04/24 04:51:13;;;;;;;41.22;19.62;;;;;;;9.33;100.00;97783.59;4485638;31;20123;-76
2022/04/24 04:53:40;;;;;;;38.92;18.62;;;;;;;9.32;100.00;97774.09;4485524;31;20569;-75
2022/04/24 04:56:08;;;;;;;38.67;18.75;;;;;;;9.44;100.00;97771.25;4485560;31;20566;-76
2022/04/24 04:58:35;;;;;;;35.10;17.95;;;;;;;9.70;100.00;97769.41;4485585;31;20413;-75
2022/04/24 05:01:02;;;;;;;31.95;18.10;;;;;;;9.79;100.00;97766.84;4485492;31;20096;-75
2022/04/24 05:03:30;;;;;;;38.00;18.50;;;;;;;9.86;100.00;97773.09;4485533;31;20450;-76
2022/04/24 05:05:58;;;;;;;36.53;18.42;;;;;;;9.82;100.00;97761.28;4485311;32;20137;-76
2022/04/24 05:08:25;;;;;;;33.38;19.10;;;;;;;9.85;100.00;97763.59;4485263;31;20119;-75
2022/04/24 05:10:53;;;;;;;34.72;17.33;;;;;;;9.88;100.00;97765.91;4485500;32;20240;-76
2022/04/24 05:13:20;;;;;;;32.85;17.75;;;;;;;9.78;100.00;97763.41;4485343;31;20088;-75
2022/04/24 05:15:48;;;;;;;37.65;18.83;;;;;;;9.63;100.00;97762.34;4485585;31;20092;-75
2022/04/24 05:18:15;;;;;;;33.17;17.60;;;;;;;9.59;100.00;97756.62;4485373;31;20100;-75
2022/04/24 05:20:45;;;;;;;37.35;19.00;;;;;;;9.66;100.00;97752.41;4485466;31;20096;-75
2022/04/24 05:23:12;;;;;;;35.60;18.52;;;;;;;9.61;100.00;97754.66;4485373;32;20084;-75
2022/04/24 05:25:40;;;;;;;38.50;19.75;;;;;;;9.77;100.00;97759.97;4485405;31;20156;-75
2022/04/24 05:28:07;;;;;;;39.53;19.62;;;;;;;10.05;100.00;97758.91;4485330;31;20446;-75
2022/04/24 05:30:34;;;;;;;39.47;19.87;;;;;;;10.22;100.00;97762.41;4485394;31;20493;-75
2022/04/24 05:33:01;;;;;;;41.17;19.62;;;;;;;10.07;100.00;97757.78;4485345;31;20115;-75
2022/04/24 05:35:28;;;;;;;38.75;19.25;;;;;;;10.02;100.00;97757.47;4485295;31;20119;-75
2022/04/24 05:37:55;;;;;;;40.58;21.17;;;;;;;9.94;100.00;97754.81;4485028;32;20119;-75
2022/04/24 05:40:23;;;;;;;45.20;21.85;;;;;;;9.99;100.00;97749.09;4485327;31;20108;-75
2022/04/24 05:42:55;;;;;;;37.85;20.33;;;;;;;10.20;100.00;97753.91;4485642;31;20450;-75
2022/04/24 05:45:24;;;;;;;39.50;20.62;;;;;;;10.36;100.00;97769.69;4485485;31;20096;-75
2022/04/24 05:47:56;;;;;;;37.90;19.20;;;;;;;10.45;100.00;97768.72;4485270;31;20104;-75
2022/04/24 05:50:24;;;;;;;38.20;20.10;;;;;;;10.69;100.00;97769.75;4485274;32;20561;-75
2022/04/24 05:52:55;;;;;;;36.75;19.08;;;;;;;10.60;100.00;97773.34;4485206;32;20164;-75
2022/04/24 05:55:23;;;;;;;39.70;20.27;;;;;;;10.92;100.00;97766.47;4485326;31;20096;-75
2022/04/24 05:57:51;;;;;;;37.65;20.83;;;;;;;10.79;100.00;97774.81;4485241;31;20127;-75
2022/04/24 06:00:21;;;;;;;41.10;20.17;;;;;;;10.74;100.00;97770.06;4485328;31;20093;-75
2022/04/24 06:02:52;;;;;;;37.33;19.25;;;;;;;10.90;100.00;97777.13;4485502;32;20143;-75
2022/04/24 06:05:20;;;;;;;37.45;20.42;;;;;;;11.18;100.00;97774.94;4482716;31;83502;-75
2022/04/24 06:07:47;;;;;;;38.70;20.27;;;;;;;11.27;100.00;97761.84;4484698;31;20101;-75
2022/04/24 06:10:15;;;;;;;39.63;19.58;;;;;;;11.36;100.00;97776.59;4485102;31;20105;-75
2022/04/24 06:12:46;;;;;;;34.30;19.62;;;;;;;11.40;100.00;97767.41;4485072;31;20092;-75
2022/04/24 06:15:15;;;;;;;37.70;19.48;;;;;;;11.49;100.00;97768.19;4485114;31;20115;-75
2022/04/24 06:17:46;;;;;;;36.88;20.20;;;;;;;11.45;100.00;97770.34;4485035;31;20093;-75
2022/04/24 06:20:14;;;;;;;35.20;18.67;;;;;;;11.52;100.00;97766.06;4484945;31;20597;-75
2022/04/24 06:23:00;;;;;;;40.00;19.55;;;;;;;11.42;100.00;97762.81;4484961;31;20089;-76
2022/04/24 06:25:32;;;;;;;33.15;20.35;;;;;;;11.43;100.00;97761.81;4484246;31;20088;-75
2022/04/24 06:28:02;;;;;;;38.92;20.08;;;;;;;11.37;100.00;97772.97;4485005;31;20080;-75
2022/04/24 06:30:30;;;;;;;34.65;19.48;;;;;;;11.57;100.00;97770.81;4477030;32;20096;-75
2022/04/24 06:32:58;;;;;;;36.78;19.48;;;;;;;11.70;100.00;97762.38;4469217;32;20446;-75
2022/04/24 06:35:25;;;;;;;34.90;19.67;;;;;;;11.88;100.00;97763.00;4467831;32;20108;-75
2022/04/24 06:37:54;;;;;;;32.28;18.45;;;;;;;11.99;98.58;97763.62;4468901;32;20600;-75
2022/04/24 06:40:25;;;;;;;34.70;19.05;;;;;;;11.99;99.05;97768.87;4469113;32;20176;-75
2022/04/24 06:42:54;;;;;;;35.78;19.70;;;;;;;12.15;96.55;97755.66;4469207;32;20450;-76
2022/04/24 06:45:33;;;;;;;33.85;19.05;;;;;;;12.35;97.90;97755.25;4467906;32;20131;-75
2022/04/24 06:48:04;;;;;;;34.80;19.02;;;;;;;12.49;96.49;97751.87;4469147;32;20104;-75
2022/04/24 06:50:34;;;;;;;31.08;18.02;;;;;;;12.58;95.48;97745.56;4469141;32;20096;-75
2022/04/24 06:53:06;;;;;;;32.10;16.62;;;;;;;12.70;95.75;97747.78;4469158;32;20591;-75
2022/04/24 06:55:36;;;;;;;35.58;18.98;;;;;;;12.63;95.67;97752.94;4467812;32;20142;-75
2022/04/24 06:58:05;;;;;;;30.45;17.62;;;;;;;12.69;96.94;97751.41;4467895;32;20176;-75
2022/04/24 07:00:36;;;;;;;33.10;18.05;;;;;;;12.44;96.17;97727.94;4468888;32;20093;-75
2022/04/24 07:03:26;;;;;;;34.92;17.87;;;;;;;12.81;95.70;97733.41;4468895;32;20080;-75
2022/04/24 07:05:54;;;;;;;33.45;17.35;;;;;;;13.13;94.72;97740.19;4468710;32;20108;-75
2022/04/24 07:08:24;;;;;;;33.08;17.90;;;;;;;13.14;92.19;97742.66;4467128;32;20599;-75
2022/04/24 07:10:55;;;;;;;30.67;16.62;;;;;;;13.50;93.47;97738.53;4468877;32;20113;-75
2022/04/24 07:13:22;;;;;;;30.37;16.70;;;;;;;13.58;91.28;97735.81;4467597;32;20077;-75
2022/04/24 07:15:51;;;;;;;26.35;16.45;;;;;;;13.92;90.99;97747.59;4467363;32;20129;-75
2022/04/24 07:18:20;;;;;;;28.62;16.80;;;;;;;13.86;87.77;97737.00;4468788;32;20271;-76
2022/04/24 07:20:47;;;;;;;27.00;16.52;;;;;;;13.95;90.95;97738.53;4468558;32;20085;-75
2022/04/24 07:23:15;;;;;;;26.90;15.20;;;;;;;14.05;87.82;97733.78;4468598;32;20093;-75
2022/04/24 07:25:46;;;;;;;28.70;16.58;;;;;;;14.12;86.78;97734.66;4468583;32;20137;-75
2022/04/24 07:28:15;;;;;;;28.23;15.85;;;;;;;14.25;87.57;97728.72;4468795;32;20198;-75
2022/04/24 07:30:43;;;;;;;23.95;14.15;;;;;;;14.12;86.02;97726.75;4476372;32;20446;-75
2022/04/24 07:33:11;;;;;;;30.73;16.12;;;;;;;14.13;86.07;97720.50;4484213;31;20584;-75
2022/04/24 07:35:39;;;;;;;27.37;16.35;;;;;;;14.06;89.30;97731.97;4483945;31;20224;-75
2022/04/24 07:38:07;;;;;;;29.23;15.82;;;;;;;14.24;89.24;97724.47;4485213;31;20092;-75
2022/04/24 07:40:35;;;;;;;27.15;16.37;;;;;;;14.79;87.18;97721.34;4486194;32;20088;-76
2022/04/24 07:43:04;;;;;;;30.15;17.05;;;;;;;15.09;87.54;97727.28;4486146;32;20150;-75
2022/04/24 07:45:36;;;;;;;28.17;15.38;;;;;;;15.16;84.70;97724.72;4486364;31;20388;-75
2022/04/24 07:48:05;;;;;;;28.35;15.38;;;;;;;15.02;83.85;97729.06;4486370;31;20076;-75
2022/04/24 07:50:35;;;;;;;30.10;16.35;;;;;;;15.31;82.74;97737.81;4486138;32;20221;-75
2022/04/24 07:53:03;;;;;;;29.67;16.00;;;;;;;15.29;83.45;97738.00;4486161;31;20097;-75
2022/04/24 07:55:30;;;;;;;30.58;17.05;;;;;;;15.33;84.79;97749.78;4486410;31;20123;-75
2022/04/24 07:57:58;;;;;;;27.70;16.62;;;;;;;15.05;83.71;97744.50;4486147;31;20118;-75
2022/04/24 08:00:28;;;;;;;30.80;16.90;;;;;;;14.76;87.78;97735.75;4485675;31;20119;-75
2022/04/24 08:03:01;;;;;;;28.23;16.30;;;;;;;14.87;86.61;97713.34;4486061;31;20101;-75
2022/04/24 08:05:37;;;;;;;26.83;16.30;;;;;;;14.92;87.99;97716.19;4485730;31;20072;-75
2022/04/24 08:08:17;;;;;;;25.50;15.13;;;;;;;15.26;86.71;97720.72;4485749;31;20152;-75
2022/04/24 08:10:49;;;;;;;26.83;15.38;;;;;;;15.84;82.74;97718.81;4485882;31;20099;-75
2022/04/24 08:13:18;;;;;;;28.40;13.65;;;;;;;16.04;84.52;97730.28;4486080;32;20095;-76
2022/04/24 08:15:45;;;;;;;24.17;12.68;;;;;;;16.12;79.38;97722.19;4486260;31;20093;-75
2022/04/24 08:18:13;;;;;;;21.77;12.00;;;;;;;16.64;77.72;97713.75;4486010;32;20123;-75
2022/04/24 08:20:42;;;;;;;17.98;11.60;;;;;;;16.83;74.93;97701.53;4485778;31;20107;-75
2022/04/24 08:23:11;;;;;;;21.05;12.73;;;;;;;16.70;71.64;97690.94;4485965;31;20097;-75
2022/04/24 08:25:38;;;;;;;20.37;12.27;;;;;;;16.55;73.79;97696.44;4486019;31;20100;-75
2022/04/24 08:28:09;;;;;;;23.38;12.00;;;;;;;16.96;73.44;97703.41;4485948;31;20247;-75
2022/04/24 08:30:38;;;;;;;23.92;13.10;;;;;;;16.82;75.05;97711.31;4476974;32;20088;-75
2022/04/24 08:33:06;;;;;;;20.67;13.68;;;;;;;17.17;74.70;97697.09;4470256;32;20457;-76
2022/04/24 08:35:34;;;;;;;23.00;13.40;;;;;;;17.86;74.92;97700.16;4469833;32;20116;-75
2022/04/24 08:38:01;;;;;;;24.15;12.85;;;;;;;18.37;74.65;97693.19;4470005;32;20537;-75
2022/04/24 08:40:29;;;;;;;23.30;14.02;;;;;;;18.08;71.05;97692.75;4470148;32;20386;-75
2022/04/24 08:42:56;;;;;;;23.27;13.52;;;;;;;18.18;72.04;97687.81;4470047;32;20139;-75
2022/04/24 08:45:26;;;;;;;21.83;13.80;;;;;;;18.35;71.76;97681.97;4470008;32;20108;-76
2022/04/24 08:47:54;;;;;;;23.80;12.02;;;;;;;18.59;70.46;97677.72;4469689;32;20169;-75
2022/04/24 08:50:22;;;;;;;20.60;11.82;;;;;;;18.32;71.14;97683.22;4469927;32;20084;-76
2022/04/24 08:52:50;;;;;;;19.65;12.20;;;;;;;18.60;71.11;97682.81;4469950;32;20091;-76
2022/04/24 08:55:17;;;;;;;7.00;4.78;;;;;;;19.01;73.19;97669.25;4469977;32;20164;-76
2022/04/24 08:57:44;;;;;;;9.73;4.87;;;;;;;18.73;62.16;97686.41;4468725;32;20096;-76
2022/04/24 09:00:12;;;;;;;8.40;2.90;;;;;;;19.00;66.63;97679.06;4468495;32;20159;-76
2022/04/24 09:02:49;;;;;;;5.65;3.08;;;;;;;19.30;62.22;97671.22;4470095;32;20093;-75
2022/04/24 09:05:17;;;;;;;3.55;2.20;;;;;;;19.19;59.02;97663.97;4469657;32;20093;-76
2022/04/24 09:07:45;;;;;;;4.30;2.70;;;;;;;19.44;58.09;97674.53;4469637;32;20449;-75
2022/04/24 09:10:46;;;;;;;5.03;2.67;;;;;;;19.42;57.05;97659.84;4469691;32;20250;-75
2022/04/24 09:14:14;;;;;;;5.20;2.08;;;;;;;19.25;59.22;97665.75;4469871;32;20088;-75
2022/04/24 09:16:32;;;;;;;6.37;1.90;;;;;;;19.12;55.71;97663.22;4468577;32;20748;-75
2022/04/24 09:18:59;;;;;;;8.77;2.62;;;;;;;19.34;57.78;97666.28;4469976;32;20424;-75
2022/04/24 09:21:27;;;;;;;3.22;1.90;;;;;;;19.58;56.63;97667.22;4469521;32;20133;-75
2022/04/24 09:23:59;;;;;;;3.58;2.03;;;;;;;19.49;54.14;97673.88;4469810;32;20454;-75
2022/04/24 09:26:27;;;;;;;4.22;1.85;;;;;;;19.49;55.35;97663.25;4469751;32;20089;-75
2022/04/24 09:29:13;;;;;;;4.23;1.50;;;;;;;19.67;54.38;97657.91;4469773;32;20428;-75
2022/04/24 09:31:45;;;;;;;3.65;1.30;;;;;;;20.03;57.32;97661.59;4483790;32;20168;-75
2022/04/24 09:34:17;;;;;;;4.53;1.65;;;;;;;19.94;53.31;97654.97;4485455;31;20102;-76
2022/04/24 09:36:45;;;;;;;3.67;1.42;;;;;;;19.78;56.57;97659.03;4485237;31;20107;-75
2022/04/24 09:39:13;;;;;;;3.35;1.50;;;;;;;20.07;52.55;97651.31;4484303;32;20092;-75
2022/04/24 09:41:40;;;;;;;2.28;1.10;;;;;;;20.36;52.61;97660.31;4485325;31;20482;-75
2022/04/24 09:44:12;;;;;;;2.97;0.82;;;;;;;19.89;52.36;97664.62;4485618;31;20105;-75
2022/04/24 09:46:40;;;;;;;4.37;0.80;;;;;;;19.41;50.16;97664.38;4485258;31;20127;-75
2022/04/24 09:49:10;;;;;;;1.83;1.00;;;;;;;19.14;51.58;97659.31;4485516;31;20959;-75
2022/04/24 09:51:44;;;;;;;3.30;0.75;;;;;;;18.96;50.19;97656.66;4485449;31;20107;-75
2022/04/24 09:54:12;;;;;;;1.90;0.70;;;;;;;19.01;52.28;97658.63;4485477;31;20077;-75
2022/04/24 09:56:40;;;;;;;2.80;0.77;;;;;;;19.01;53.66;97658.63;4485297;31;20438;-75
2022/04/24 09:59:08;;;;;;;2.60;0.50;;;;;;;18.78;53.85;97670.66;4485120;31;20110;-75
2022/04/24 10:01:35;;;;;;;4.62;1.23;;;;;;;18.68;52.05;97678.28;4484331;31;20163;-75
2022/04/24 10:04:05;;;;;;;1.02;0.77;;;;;;;18.78;51.45;97682.06;4483940;32;20127;-75
2022/04/24 10:06:32;;;;;;;1.55;0.70;;;;;;;18.74;52.62;97686.19;4485030;31;20093;-75
2022/04/24 10:09:00;;;;;;;1.77;0.80;;;;;;;18.90;51.99;97674.25;4485210;31;20091;-75
2022/04/24 10:11:30;;;;;;;3.12;0.90;;;;;;;18.75;52.90;97693.09;4485000;31;20590;-75
2022/04/24 10:14:02;;;;;;;2.47;0.93;;;;;;;18.74;53.19;97691.50;4485290;31;20126;-75
2022/04/24 10:16:58;;;;;;;3.85;0.90;;;;;;;18.47;53.08;97698.84;4483943;32;20476;-75
2022/04/24 10:19:28;;;;;;;3.62;0.90;;;;;;;18.11;53.21;97694.13;4485397;31;20093;-75
2022/04/24 10:22:27;;;;;;;3.03;1.00;;;;;;;18.12;54.17;97709.03;4484853;31;20397;-75
2022/04/24 10:25:02;;;;;;;2.00;0.75;;;;;;;17.85;55.47;97703.81;4476894;31;20672;-75
2022/04/24 10:27:44;;;;;;;1.23;0.60;;;;;;;17.62;56.75;97704.31;4485387;31;20108;-75
2022/04/24 10:30:18;;;;;;;1.50;0.70;;;;;;;17.48;55.56;97696.38;4485138;31;20096;-75
2022/04/24 10:32:48;;;;;;;2.65;0.90;;;;;;;17.23;57.94;97692.78;4484821;32;20092;-75
2022/04/24 10:35:19;;;;;;;3.28;1.30;;;;;;;17.03;60.51;97698.91;4484805;31;20080;-75
2022/04/24 10:37:47;;;;;;;1.35;0.70;;;;;;;16.76;58.91;97701.56;4485003;31;20427;-75
2022/04/24 10:40:17;;;;;;;4.65;0.60;;;;;;;16.56;61.30;97693.59;4484823;31;20123;-75
2022/04/24 10:42:44;;;;;;;1.70;0.90;;;;;;;16.23;62.34;97691.72;4484769;31;20457;-75
2022/04/24 10:45:15;;;;;;;2.78;0.70;;;;;;;16.01;63.13;97687.59;4484936;31;20115;-75
2022/04/24 10:47:55;;;;;;;1.77;0.57;;;;;;;16.09;64.10;97682.97;4484893;31;20080;-75
2022/04/24 10:50:23;;;;;;;1.65;0.70;;;;;;;16.25;63.59;97680.94;4484942;32;20093;-75
2022/04/24 10:52:55;;;;;;;0.90;0.60;;;;;;;16.16;63.71;97679.50;4484896;32;20091;-75
2022/04/24 10:55:25;;;;;;;5.65;0.73;;;;;;;16.27;63.73;97678.91;4485070;32;20488;-75
2022/04/24 10:58:02;;;;;;;2.03;0.57;;;;;;;16.30;64.02;97667.94;4484902;31;20585;-75
2022/04/24 11:00:34;;;;;;;3.50;0.80;;;;;;;16.37;63.48;97676.69;4484762;32;20179;-75
2022/04/24 11:03:13;;;;;;;2.08;0.95;;;;;;;16.30;63.60;97681.16;4484467;31;20151;-75
2022/04/24 11:05:43;;;;;;;1.70;0.57;;;;;;;16.34;62.17;97684.22;4484696;31;20104;-75
2022/04/24 11:08:18;;;;;;;1.60;0.50;;;;;;;16.21;62.69;97695.56;4484219;31;20100;-75
2022/04/24 11:10:50;;;;;;;1.55;0.62;;;;;;;16.10;63.10;97692.50;4484830;31;20116;-75
2022/04/24 11:13:19;;;;;;;1.65;0.60;;;;;;;15.92;63.09;97684.31;4489601;31;20549;-75
2022/04/24 11:15:48;;;;;;;1.92;0.82;;;;;;;15.85;64.44;97683.47;4489770;31;20155;-75
2022/04/24 11:18:21;;;;;;;2.05;0.93;;;;;;;15.71;64.47;97688.66;4488321;32;20177;-75
2022/04/24 11:21:01;;;;;;;1.17;0.80;;;;;;;15.88;64.92;97688.34;4489792;31;20122;-75
2022/04/24 11:23:36;;;;;;;2.70;0.70;;;;;;;15.73;67.20;97691.94;4489498;31;20080;-75
2022/04/24 11:26:09;;;;;;;2.00;1.35;;;;;;;15.78;65.59;97700.09;4489980;31;20080;-75
2022/04/24 11:28:45;;;;;;;2.00;1.05;;;;;;;15.87;66.32;97703.38;4489763;31;20120;-75
2022/04/24 11:31:18;;;;;;;3.17;0.80;;;;;;;15.97;64.80;97695.09;4489521;32;20108;-75